createdAt,value
2022-10-19T00:00:51.669Z,1023.85
2022-10-19T00:01:51.696Z,1023.85
2022-10-19T00:02:51.658Z,1023.85
2022-10-19T00:03:51.653Z,1023.83
2022-10-19T00:04:51.647Z,1023.87
2022-10-19T00:05:51.647Z,1023.88
2022-10-19T00:06:52.055Z,1023.87
2022-10-19T00:07:54.264Z,1023.86
2022-10-19T00:08:51.761Z,1023.84
2022-10-19T00:09:51.998Z,1023.84
2022-10-19T00:10:51.631Z,1023.82
2022-10-19T00:11:51.631Z,1023.80
2022-10-19T00:12:51.639Z,1023.82
2022-10-19T00:13:51.636Z,1023.79
2022-10-19T00:14:51.643Z,1023.76
2022-10-19T00:15:51.635Z,1023.80
2022-10-19T00:16:51.631Z,1023.74
2022-10-19T00:17:51.621Z,1023.74
2022-10-19T00:18:51.629Z,1023.72
2022-10-19T00:19:51.620Z,1023.70
2022-10-19T00:20:51.615Z,1023.69
2022-10-19T00:21:51.657Z,1023.69
2022-10-19T00:22:51.618Z,1023.72
2022-10-19T00:23:51.621Z,1023.68
2022-10-19T00:24:51.619Z,1023.68
2022-10-19T00:25:51.628Z,1023.66
2022-10-19T00:26:51.617Z,1023.66
2022-10-19T00:27:51.610Z,1023.66
2022-10-19T00:28:51.665Z,1023.63
2022-10-19T00:29:51.607Z,1023.63
2022-10-19T00:30:51.631Z,1023.64
2022-10-19T00:31:51.614Z,1023.68
2022-10-19T00:32:51.596Z,1023.64
2022-10-19T00:33:51.598Z,1023.67
2022-10-19T00:34:51.597Z,1023.67
2022-10-19T00:35:51.593Z,1023.69
2022-10-19T00:36:51.610Z,1023.66
2022-10-19T00:37:51.588Z,1023.70
2022-10-19T00:38:51.591Z,1023.71
2022-10-19T00:40:51.612Z,1023.74
2022-10-19T00:41:51.579Z,1023.74
2022-10-19T00:42:51.582Z,1023.72
2022-10-19T00:43:51.595Z,1023.72
2022-10-19T00:44:51.573Z,1023.75
2022-10-19T00:45:51.583Z,1023.70
2022-10-19T00:46:51.597Z,1023.74
2022-10-19T00:47:51.578Z,1023.73
2022-10-19T00:48:51.597Z,1023.75
2022-10-19T00:49:51.567Z,1023.80
2022-10-19T00:50:51.573Z,1023.80
2022-10-19T00:51:51.568Z,1023.81
2022-10-19T00:52:51.565Z,1023.84
2022-10-19T00:53:51.563Z,1023.81
2022-10-19T00:54:51.560Z,1023.79
2022-10-19T00:55:51.558Z,1023.79
2022-10-19T00:56:51.565Z,1023.79
2022-10-19T00:58:51.564Z,1023.81
2022-10-19T00:59:51.564Z,1023.82
2022-10-19T01:00:51.604Z,1023.80
2022-10-19T01:01:51.550Z,1023.81
2022-10-19T01:02:51.567Z,1023.82
2022-10-19T01:03:51.556Z,1023.82
2022-10-19T01:04:51.542Z,1023.79
2022-10-19T01:05:51.553Z,1023.85
2022-10-19T01:07:51.549Z,1023.82
2022-10-19T01:08:51.546Z,1023.80
2022-10-19T01:09:51.542Z,1023.81
2022-10-19T01:10:51.548Z,1023.82
2022-10-19T01:11:51.538Z,1023.78
2022-10-19T01:12:51.533Z,1023.77
2022-10-19T01:13:51.531Z,1023.78
2022-10-19T01:14:51.536Z,1023.76
2022-10-19T01:16:51.535Z,1023.75
2022-10-19T01:17:51.521Z,1023.75
2022-10-19T01:18:51.547Z,1023.74
2022-10-19T01:19:51.527Z,1023.73
2022-10-19T01:20:51.523Z,1023.74
2022-10-19T01:21:51.539Z,1023.69
2022-10-19T01:22:51.510Z,1023.72
2022-10-19T01:23:51.515Z,1023.71
2022-10-19T01:24:51.521Z,1023.73
2022-10-19T01:25:51.528Z,1023.70
2022-10-19T01:26:51.505Z,1023.68
2022-10-19T01:27:51.513Z,1023.69
2022-10-19T01:28:51.591Z,1023.69
2022-10-19T01:29:51.513Z,1023.68
2022-10-19T01:30:51.516Z,1023.72
2022-10-19T01:31:51.518Z,1023.66
2022-10-19T01:32:51.508Z,1023.63
2022-10-19T01:33:51.515Z,1023.61
2022-10-19T01:34:51.525Z,1023.62
2022-10-19T01:35:51.492Z,1023.61
2022-10-19T01:36:51.492Z,1023.58
2022-10-19T01:37:51.486Z,1023.58
2022-10-19T01:38:51.492Z,1023.60
2022-10-19T01:39:51.492Z,1023.61
2022-10-19T01:40:51.486Z,1023.62
2022-10-19T01:41:51.493Z,1023.56
2022-10-19T01:42:51.532Z,1023.56
2022-10-19T01:43:51.490Z,1023.53
2022-10-19T01:44:51.491Z,1023.53
2022-10-19T01:45:51.477Z,1023.49
2022-10-19T01:46:51.475Z,1023.49
2022-10-19T01:47:51.491Z,1023.47
2022-10-19T01:48:51.478Z,1023.46
2022-10-19T01:49:51.476Z,1023.49
2022-10-19T01:50:51.496Z,1023.43
2022-10-19T01:51:51.508Z,1023.45
2022-10-19T01:52:51.461Z,1023.43
2022-10-19T01:53:51.466Z,1023.43
2022-10-19T01:54:51.474Z,1023.37
2022-10-19T01:55:51.470Z,1023.33
2022-10-19T01:56:51.488Z,1023.33
2022-10-19T01:57:51.459Z,1023.33
2022-10-19T01:58:51.451Z,1023.33
2022-10-19T01:59:51.457Z,1023.31
2022-10-19T02:00:51.571Z,1023.31
2022-10-19T02:01:51.511Z,1023.30
2022-10-19T02:02:51.460Z,1023.29
2022-10-19T02:03:51.443Z,1023.33
2022-10-19T02:04:51.442Z,1023.30
2022-10-19T02:05:51.445Z,1023.33
2022-10-19T02:06:51.472Z,1023.35
2022-10-19T02:07:51.438Z,1023.31
2022-10-19T02:08:51.449Z,1023.35
2022-10-19T02:09:51.432Z,1023.33
2022-10-19T02:10:51.440Z,1023.33
2022-10-19T02:11:53.395Z,1023.34
2022-10-19T02:12:51.429Z,1023.32
2022-10-19T02:13:51.433Z,1023.33
2022-10-19T02:14:51.433Z,1023.31
2022-10-19T02:15:51.440Z,1023.31
2022-10-19T02:16:51.428Z,1023.33
2022-10-19T02:17:51.424Z,1023.32
2022-10-19T02:18:51.436Z,1023.28
2022-10-19T02:19:51.416Z,1023.28
2022-10-19T02:20:51.433Z,1023.26
2022-10-19T02:21:51.438Z,1023.29
2022-10-19T02:22:51.429Z,1023.27
2022-10-19T02:23:54.061Z,1023.29
2022-10-19T02:24:51.418Z,1023.29
2022-10-19T02:25:51.417Z,1023.22
2022-10-19T02:26:51.434Z,1023.23
2022-10-19T02:27:51.403Z,1023.24
2022-10-19T02:28:51.414Z,1023.22
2022-10-19T02:29:51.407Z,1023.21
2022-10-19T02:30:51.409Z,1023.26
2022-10-19T02:31:51.418Z,1023.22
2022-10-19T02:32:51.404Z,1023.22
2022-10-19T02:33:51.395Z,1023.21
2022-10-19T02:34:51.388Z,1023.24
2022-10-19T02:35:51.392Z,1023.24
2022-10-19T02:36:51.398Z,1023.25
2022-10-19T02:37:51.389Z,1023.27
2022-10-19T02:38:51.409Z,1023.24
2022-10-19T02:39:51.390Z,1023.23
2022-10-19T02:40:51.381Z,1023.23
2022-10-19T02:41:51.384Z,1023.19
2022-10-19T02:42:51.382Z,1023.16
2022-10-19T02:43:51.395Z,1023.14
2022-10-19T02:44:51.398Z,1023.14
2022-10-19T02:45:51.379Z,1023.08
2022-10-19T02:46:51.377Z,1023.11
2022-10-19T02:47:51.368Z,1023.10
2022-10-19T02:48:51.375Z,1023.10
2022-10-19T02:49:51.376Z,1023.05
2022-10-19T02:50:51.368Z,1023.07
2022-10-19T02:51:51.367Z,1023.06
2022-10-19T02:52:51.364Z,1023.00
2022-10-19T02:53:51.366Z,1023.07
2022-10-19T02:54:51.392Z,1023.03
2022-10-19T02:55:51.367Z,1023.05
2022-10-19T02:56:51.363Z,1023.10
2022-10-19T02:57:51.369Z,1023.07
2022-10-19T02:58:51.355Z,1023.05
2022-10-19T02:59:51.353Z,1023.04
2022-10-19T03:00:51.448Z,1023.03
2022-10-19T03:01:51.358Z,1023.06
2022-10-19T03:02:51.348Z,1022.96
2022-10-19T03:03:51.339Z,1023.05
2022-10-19T03:04:51.352Z,1023.01
2022-10-19T03:05:51.345Z,1022.99
2022-10-19T03:06:51.349Z,1022.98
2022-10-19T03:07:51.334Z,1022.98
2022-10-19T03:08:51.343Z,1022.96
2022-10-19T03:09:51.340Z,1022.96
2022-10-19T03:10:51.360Z,1022.95
2022-10-19T03:11:51.333Z,1022.94
2022-10-19T03:12:51.334Z,1022.91
2022-10-19T03:13:51.335Z,1022.90
2022-10-19T03:14:51.325Z,1022.90
2022-10-19T03:15:51.324Z,1022.87
2022-10-19T03:16:51.321Z,1022.89
2022-10-19T03:17:51.322Z,1022.92
2022-10-19T03:18:51.321Z,1022.87
2022-10-19T03:19:51.315Z,1022.89
2022-10-19T03:20:51.315Z,1022.89
2022-10-19T03:21:51.319Z,1022.85
2022-10-19T03:22:51.319Z,1022.86
2022-10-19T03:23:51.313Z,1022.90
2022-10-19T03:24:51.306Z,1022.94
2022-10-19T03:25:51.314Z,1022.90
2022-10-19T03:26:51.318Z,1022.89
2022-10-19T03:27:51.305Z,1022.90
2022-10-19T03:28:51.322Z,1022.87
2022-10-19T03:29:51.301Z,1022.92
2022-10-19T03:30:51.292Z,1022.90
2022-10-19T03:31:51.299Z,1022.92
2022-10-19T03:32:51.298Z,1022.89
2022-10-19T03:33:51.298Z,1022.91
2022-10-19T03:34:51.290Z,1022.86
2022-10-19T03:35:51.289Z,1022.87
2022-10-19T03:36:51.278Z,1022.87
2022-10-19T03:37:51.282Z,1022.83
2022-10-19T03:38:51.275Z,1022.82
2022-10-19T03:39:51.276Z,1022.85
2022-10-19T03:40:51.272Z,1022.84
2022-10-19T03:41:51.280Z,1022.89
2022-10-19T03:42:51.296Z,1022.89
2022-10-19T03:43:51.329Z,1022.91
2022-10-19T03:44:51.284Z,1022.94
2022-10-19T03:45:51.278Z,1022.93
2022-10-19T03:46:51.264Z,1022.92
2022-10-19T03:47:51.269Z,1022.93
2022-10-19T03:48:51.264Z,1022.90
2022-10-19T03:49:51.266Z,1022.88
2022-10-19T03:50:51.259Z,1022.93
2022-10-19T03:51:51.263Z,1022.90
2022-10-19T03:52:51.361Z,1022.96
2022-10-19T03:53:51.259Z,1022.92
2022-10-19T03:54:51.259Z,1022.96
2022-10-19T03:55:51.259Z,1022.93
2022-10-19T03:56:51.246Z,1022.95
2022-10-19T03:57:51.247Z,1022.95
2022-10-19T03:58:51.273Z,1022.96
2022-10-19T03:59:51.254Z,1022.94
2022-10-19T04:00:51.262Z,1022.97
2022-10-19T04:01:51.237Z,1022.96
2022-10-19T04:02:51.245Z,1022.97
2022-10-19T04:03:51.232Z,1022.99
2022-10-19T04:04:51.232Z,1022.96
2022-10-19T04:05:51.235Z,1022.98
2022-10-19T04:06:51.233Z,1023.01
2022-10-19T04:07:51.232Z,1023.04
2022-10-19T04:08:51.228Z,1023.07
2022-10-19T04:09:51.234Z,1023.03
2022-10-19T04:10:51.234Z,1023.04
2022-10-19T04:11:51.228Z,1023.09
2022-10-19T04:12:53.855Z,1023.06
2022-10-19T04:13:51.215Z,1023.03
2022-10-19T04:14:57.400Z,1022.99
2022-10-19T04:15:51.220Z,1022.96
2022-10-19T04:16:51.215Z,1023.01
2022-10-19T04:17:51.214Z,1023.04
2022-10-19T04:18:51.204Z,1023.05
2022-10-19T04:19:51.211Z,1023.04
2022-10-19T04:20:51.205Z,1023.05
2022-10-19T04:21:51.210Z,1023.10
2022-10-19T04:22:51.208Z,1023.09
2022-10-19T04:23:51.219Z,1023.11
2022-10-19T04:24:51.203Z,1023.11
2022-10-19T04:25:51.206Z,1023.10
2022-10-19T04:26:51.192Z,1023.11
2022-10-19T04:27:51.197Z,1023.06
2022-10-19T04:28:51.256Z,1023.07
2022-10-19T04:29:51.195Z,1023.07
2022-10-19T04:30:51.223Z,1023.07
2022-10-19T04:31:51.179Z,1023.03
2022-10-19T04:32:51.180Z,1023.03
2022-10-19T04:33:51.191Z,1023.05
2022-10-19T04:34:51.190Z,1023.05
2022-10-19T04:35:51.192Z,1023.09
2022-10-19T04:36:51.181Z,1023.06
2022-10-19T04:37:51.168Z,1023.07
2022-10-19T04:38:51.978Z,1023.06
2022-10-19T04:39:51.171Z,1023.06
2022-10-19T04:40:51.173Z,1023.05
2022-10-19T04:41:51.177Z,1023.04
2022-10-19T04:42:51.157Z,1023.01
2022-10-19T04:43:51.156Z,1022.97
2022-10-19T04:44:51.154Z,1023.00
2022-10-19T04:45:51.164Z,1022.95
2022-10-19T04:46:51.175Z,1022.92
2022-10-19T04:47:51.170Z,1022.93
2022-10-19T04:48:51.145Z,1022.92
2022-10-19T04:49:51.153Z,1022.89
2022-10-19T04:50:51.160Z,1022.93
2022-10-19T04:51:51.148Z,1022.91
2022-10-19T04:52:51.138Z,1022.91
2022-10-19T04:53:51.919Z,1022.90
2022-10-19T04:54:51.143Z,1022.89
2022-10-19T04:55:51.148Z,1022.93
2022-10-19T04:56:51.142Z,1022.89
2022-10-19T04:57:51.140Z,1022.91
2022-10-19T04:58:51.136Z,1022.93
2022-10-19T04:59:51.131Z,1022.92
2022-10-19T05:00:51.171Z,1022.96
2022-10-19T05:01:51.128Z,1022.97
2022-10-19T05:02:51.140Z,1022.93
2022-10-19T05:03:51.198Z,1022.91
2022-10-19T05:04:51.126Z,1022.89
2022-10-19T05:05:51.117Z,1022.93
2022-10-19T05:06:51.117Z,1022.93
2022-10-19T05:07:51.118Z,1022.90
2022-10-19T05:08:51.116Z,1022.91
2022-10-19T05:09:51.118Z,1022.96
2022-10-19T05:10:51.109Z,1022.93
2022-10-19T05:11:51.110Z,1022.94
2022-10-19T05:12:51.108Z,1023.01
2022-10-19T05:13:51.100Z,1022.96
2022-10-19T05:14:51.097Z,1022.91
2022-10-19T05:15:51.101Z,1022.94
2022-10-19T05:16:51.093Z,1022.91
2022-10-19T05:17:51.101Z,1022.92
2022-10-19T05:18:51.115Z,1022.91
2022-10-19T05:19:51.103Z,1022.88
2022-10-19T05:20:51.094Z,1022.87
2022-10-19T05:21:51.096Z,1022.86
2022-10-19T05:22:51.085Z,1022.83
2022-10-19T05:23:51.085Z,1022.81
2022-10-19T05:24:54.516Z,1022.80
2022-10-19T05:25:51.087Z,1022.77
2022-10-19T05:26:51.076Z,1022.78
2022-10-19T05:27:51.083Z,1022.82
2022-10-19T05:28:51.118Z,1022.80
2022-10-19T05:29:51.075Z,1022.80
2022-10-19T05:30:51.068Z,1022.81
2022-10-19T05:31:51.084Z,1022.83
2022-10-19T05:32:51.065Z,1022.79
2022-10-19T05:33:51.160Z,1022.81
2022-10-19T05:34:51.102Z,1022.80
2022-10-19T05:35:51.068Z,1022.81
2022-10-19T05:36:51.071Z,1022.78
2022-10-19T05:37:51.058Z,1022.77
2022-10-19T05:38:51.061Z,1022.79
2022-10-19T05:39:51.072Z,1022.84
2022-10-19T05:40:53.608Z,1022.84
2022-10-19T05:41:51.056Z,1022.80
2022-10-19T05:42:51.049Z,1022.83
2022-10-19T05:43:51.043Z,1022.81
2022-10-19T05:44:51.053Z,1022.83
2022-10-19T05:45:51.047Z,1022.84
2022-10-19T05:46:51.043Z,1022.84
2022-10-19T05:47:51.054Z,1022.81
2022-10-19T05:48:51.046Z,1022.81
2022-10-19T05:49:51.049Z,1022.81
2022-10-19T05:50:51.065Z,1022.73
2022-10-19T05:51:51.036Z,1022.73
2022-10-19T05:52:51.039Z,1022.72
2022-10-19T05:53:51.042Z,1022.72
2022-10-19T05:54:51.049Z,1022.73
2022-10-19T05:55:51.035Z,1022.71
2022-10-19T05:56:51.031Z,1022.73
2022-10-19T05:57:51.033Z,1022.72
2022-10-19T05:58:51.024Z,1022.74
2022-10-19T05:59:51.036Z,1022.73
2022-10-19T06:00:51.032Z,1022.74
2022-10-19T06:01:51.053Z,1022.74
2022-10-19T06:02:52.919Z,1022.75
2022-10-19T06:03:51.039Z,1022.77
2022-10-19T06:04:51.021Z,1022.75
2022-10-19T06:05:51.028Z,1022.77
2022-10-19T06:06:51.033Z,1022.76
2022-10-19T06:07:51.020Z,1022.79
2022-10-19T06:08:51.016Z,1022.77
2022-10-19T06:09:51.012Z,1022.79
2022-10-19T06:10:51.020Z,1022.79
2022-10-19T06:11:51.009Z,1022.76
2022-10-19T06:12:51.023Z,1022.79
2022-10-19T06:13:51.006Z,1022.78
2022-10-19T06:14:51.012Z,1022.78
2022-10-19T06:15:51.003Z,1022.79
2022-10-19T06:16:51.003Z,1022.75
2022-10-19T06:17:51.021Z,1022.75
2022-10-19T06:18:51.006Z,1022.78
2022-10-19T06:19:51.001Z,1022.76
2022-10-19T06:20:51.003Z,1022.78
2022-10-19T06:21:50.997Z,1022.83
2022-10-19T06:22:51.116Z,1022.81
2022-10-19T06:23:51.010Z,1022.86
2022-10-19T06:24:51.010Z,1022.89
2022-10-19T06:25:50.997Z,1022.90
2022-10-19T06:26:50.987Z,1022.95
2022-10-19T06:27:51.073Z,1022.97
2022-10-19T06:28:50.998Z,1022.93
2022-10-19T06:29:50.994Z,1022.96
2022-10-19T06:30:51.022Z,1023.02
2022-10-19T06:31:50.990Z,1023.02
2022-10-19T06:32:51.176Z,1023.02
2022-10-19T06:33:51.004Z,1023.06
2022-10-19T06:34:55.754Z,1023.10
2022-10-19T06:35:50.991Z,1023.15
2022-10-19T06:36:50.982Z,1023.13
2022-10-19T06:37:50.984Z,1023.18
2022-10-19T06:38:50.989Z,1023.16
2022-10-19T06:39:51.014Z,1023.18
2022-10-19T06:40:50.982Z,1023.21
2022-10-19T06:41:50.975Z,1023.15
2022-10-19T06:42:51.016Z,1023.15
2022-10-19T06:43:50.987Z,1023.13
2022-10-19T06:44:50.976Z,1023.14
2022-10-19T06:45:50.962Z,1023.12
2022-10-19T06:46:50.971Z,1023.08
2022-10-19T06:47:50.970Z,1023.06
2022-10-19T06:48:50.973Z,1023.03
2022-10-19T06:49:50.962Z,1023.05
2022-10-19T06:50:50.975Z,1023.05
2022-10-19T06:51:50.956Z,1023.01
2022-10-19T06:52:50.961Z,1023.00
2022-10-19T06:53:52.972Z,1023.03
2022-10-19T06:54:50.968Z,1022.98
2022-10-19T06:55:50.967Z,1023.00
2022-10-19T06:56:50.962Z,1022.99
2022-10-19T06:57:50.947Z,1022.97
2022-10-19T06:58:50.951Z,1022.94
2022-10-19T06:59:54.382Z,1022.92
2022-10-19T07:00:51.009Z,1022.91
2022-10-19T07:01:50.948Z,1022.93
2022-10-19T07:02:51.032Z,1022.91
2022-10-19T07:03:50.941Z,1022.93
2022-10-19T07:04:50.943Z,1022.90
2022-10-19T07:05:50.946Z,1022.93
2022-10-19T07:06:50.943Z,1022.93
2022-10-19T07:07:50.986Z,1022.93
2022-10-19T07:08:50.942Z,1022.89
2022-10-19T07:09:50.937Z,1022.88
2022-10-19T07:10:50.975Z,1022.92
2022-10-19T07:11:50.935Z,1022.89
2022-10-19T07:12:51.052Z,1022.95
2022-10-19T07:13:50.937Z,1022.90
2022-10-19T07:14:50.927Z,1022.93
2022-10-19T07:15:50.924Z,1022.90
2022-10-19T07:16:50.922Z,1022.89
2022-10-19T07:17:50.928Z,1022.93
2022-10-19T07:18:50.928Z,1022.94
2022-10-19T07:19:50.931Z,1022.94
2022-10-19T07:20:50.920Z,1022.98
2022-10-19T07:21:50.981Z,1022.98
2022-10-19T07:22:50.924Z,1023.02
2022-10-19T07:23:50.927Z,1023.03
2022-10-19T07:24:50.918Z,1023.01
2022-10-19T07:25:50.920Z,1023.02
2022-10-19T07:26:50.931Z,1022.98
2022-10-19T07:27:50.909Z,1022.96
2022-10-19T07:28:50.913Z,1022.96
2022-10-19T07:29:50.927Z,1022.93
2022-10-19T07:30:50.927Z,1022.95
2022-10-19T07:31:50.906Z,1022.95
2022-10-19T07:32:50.905Z,1023.00
2022-10-19T07:33:50.899Z,1023.06
2022-10-19T07:34:50.895Z,1023.05
2022-10-19T07:35:50.898Z,1023.04
2022-10-19T07:36:50.902Z,1023.06
2022-10-19T07:37:50.897Z,1023.06
2022-10-19T07:38:50.892Z,1023.09
2022-10-19T07:39:50.886Z,1023.07
2022-10-19T07:40:50.895Z,1023.07
2022-10-19T07:41:50.897Z,1023.04
2022-10-19T07:42:50.909Z,1023.05
2022-10-19T07:43:50.920Z,1023.05
2022-10-19T07:44:50.889Z,1023.00
2022-10-19T07:45:50.965Z,1023.05
2022-10-19T07:46:50.890Z,1023.02
2022-10-19T07:47:50.919Z,1023.08
2022-10-19T07:48:50.906Z,1023.03
2022-10-19T07:49:50.902Z,1023.04
2022-10-19T07:50:50.953Z,1023.11
2022-10-19T07:51:50.927Z,1023.08
2022-10-19T07:52:50.899Z,1023.09
2022-10-19T07:53:50.923Z,1023.08
2022-10-19T07:54:50.872Z,1023.10
2022-10-19T07:55:50.871Z,1023.07
2022-10-19T07:56:50.874Z,1023.04
2022-10-19T07:57:50.875Z,1023.01
2022-10-19T07:58:50.876Z,1023.05
2022-10-19T07:59:50.862Z,1023.05
2022-10-19T08:00:50.860Z,1023.02
2022-10-19T08:01:50.940Z,1023.05
2022-10-19T08:03:05.051Z,1023.03
2022-10-19T08:05:08.000Z,1023.00
2022-10-19T08:05:50.858Z,1023.03
2022-10-19T08:06:50.861Z,1023.01
2022-10-19T08:07:50.852Z,1023.02
2022-10-19T08:08:50.954Z,1022.99
2022-10-19T08:09:53.690Z,1022.98
2022-10-19T08:10:50.838Z,1022.98
2022-10-19T08:11:50.840Z,1022.97
2022-10-19T08:12:50.835Z,1022.94
2022-10-19T08:13:50.840Z,1022.93
2022-10-19T08:14:50.863Z,1022.96
2022-10-19T08:15:50.845Z,1022.92
2022-10-19T08:16:50.846Z,1022.88
2022-10-19T08:17:50.887Z,1022.90
2022-10-19T08:18:50.824Z,1022.90
2022-10-19T08:19:50.834Z,1022.91
2022-10-19T08:20:50.846Z,1022.95
2022-10-19T08:21:50.829Z,1022.96
2022-10-19T08:22:55.004Z,1022.94
2022-10-19T08:23:50.820Z,1022.95
2022-10-19T08:24:50.824Z,1022.91
2022-10-19T08:25:50.829Z,1022.94
2022-10-19T08:26:50.824Z,1022.88
2022-10-19T08:27:50.822Z,1022.89
2022-10-19T08:28:50.807Z,1022.83
2022-10-19T08:29:50.817Z,1022.91
2022-10-19T08:30:50.832Z,1022.89
2022-10-19T08:31:50.810Z,1022.82
2022-10-19T08:32:50.801Z,1022.82
2022-10-19T08:33:50.801Z,1022.84
2022-10-19T08:34:50.815Z,1022.83
2022-10-19T08:35:50.800Z,1022.81
2022-10-19T08:36:50.795Z,1022.80
2022-10-19T08:37:51.185Z,1022.75
2022-10-19T08:38:50.823Z,1022.72
2022-10-19T08:39:50.801Z,1022.70
2022-10-19T08:40:50.787Z,1022.65
2022-10-19T08:41:50.803Z,1022.69
2022-10-19T08:42:50.797Z,1022.66
2022-10-19T08:43:50.800Z,1022.65
2022-10-19T08:44:50.785Z,1022.63
2022-10-19T08:45:50.815Z,1022.66
2022-10-19T08:46:50.812Z,1022.64
2022-10-19T08:47:50.788Z,1022.61
2022-10-19T08:48:50.776Z,1022.61
2022-10-19T08:49:50.777Z,1022.58
2022-10-19T08:50:50.781Z,1022.58
2022-10-19T08:51:50.781Z,1022.62
2022-10-19T08:52:50.772Z,1022.59
2022-10-19T08:53:50.764Z,1022.60
2022-10-19T08:54:50.772Z,1022.54
2022-10-19T08:55:50.775Z,1022.56
2022-10-19T08:56:51.979Z,1022.50
2022-10-19T08:57:50.783Z,1022.47
2022-10-19T08:58:50.765Z,1022.49
2022-10-19T08:59:50.757Z,1022.45
2022-10-19T09:00:50.758Z,1022.45
2022-10-19T09:01:50.756Z,1022.46
2022-10-19T09:02:50.778Z,1022.49
2022-10-19T09:03:55.481Z,1022.46
2022-10-19T09:04:50.755Z,1022.49
2022-10-19T09:05:50.747Z,1022.47
2022-10-19T09:06:50.761Z,1022.53
2022-10-19T09:07:50.756Z,1022.55
2022-10-19T09:08:50.821Z,1022.54
2022-10-19T09:09:50.740Z,1022.56
2022-10-19T09:10:50.745Z,1022.48
2022-10-19T09:11:50.742Z,1022.50
2022-10-19T09:12:53.891Z,1022.51
2022-10-19T09:14:04.767Z,1022.47
2022-10-19T09:14:50.729Z,1022.47
2022-10-19T09:15:50.745Z,1022.46
2022-10-19T09:16:50.739Z,1022.47
2022-10-19T09:17:50.726Z,1022.45
2022-10-19T09:18:50.946Z,1022.47
2022-10-19T09:19:50.743Z,1022.41
2022-10-19T09:20:50.720Z,1022.46
2022-10-19T09:21:50.723Z,1022.46
2022-10-19T09:22:50.726Z,1022.41
2022-10-19T09:23:50.724Z,1022.42
2022-10-19T09:24:50.731Z,1022.41
2022-10-19T09:25:50.726Z,1022.40
2022-10-19T09:26:50.712Z,1022.41
2022-10-19T09:27:50.769Z,1022.34
2022-10-19T09:28:50.705Z,1022.35
2022-10-19T09:29:50.704Z,1022.32
2022-10-19T09:30:50.707Z,1022.34
2022-10-19T09:31:50.763Z,1022.29
2022-10-19T09:32:50.708Z,1022.30
2022-10-19T09:33:50.711Z,1022.29
2022-10-19T09:34:50.716Z,1022.33
2022-10-19T09:35:50.703Z,1022.31
2022-10-19T09:36:51.116Z,1022.31
2022-10-19T09:37:50.701Z,1022.33
2022-10-19T09:38:50.716Z,1022.28
2022-10-19T09:39:54.140Z,1022.27
2022-10-19T09:40:50.689Z,1022.25
2022-10-19T09:41:50.679Z,1022.24
2022-10-19T09:42:50.687Z,1022.25
2022-10-19T09:43:50.687Z,1022.27
2022-10-19T09:44:50.678Z,1022.29
2022-10-19T09:45:50.683Z,1022.29
2022-10-19T09:46:50.676Z,1022.29
2022-10-19T09:47:50.675Z,1022.27
2022-10-19T09:48:50.678Z,1022.29
2022-10-19T09:49:50.678Z,1022.25
2022-10-19T09:50:50.699Z,1022.30
2022-10-19T09:51:50.671Z,1022.27
2022-10-19T09:52:50.672Z,1022.30
2022-10-19T09:53:50.664Z,1022.32
2022-10-19T09:54:50.667Z,1022.31
2022-10-19T09:55:50.665Z,1022.26
2022-10-19T09:56:50.668Z,1022.26
2022-10-19T09:57:50.667Z,1022.31
2022-10-19T09:58:50.669Z,1022.28
2022-10-19T09:59:50.663Z,1022.29
2022-10-19T10:00:50.663Z,1022.27
2022-10-19T10:01:50.802Z,1022.26
2022-10-19T10:02:50.661Z,1022.20
2022-10-19T10:03:53.838Z,1022.26
2022-10-19T10:04:50.652Z,1022.26
2022-10-19T10:05:50.650Z,1022.27
2022-10-19T10:06:50.673Z,1022.24
2022-10-19T10:07:50.650Z,1022.23
2022-10-19T10:08:50.703Z,1022.22
2022-10-19T10:09:50.639Z,1022.22
2022-10-19T10:10:50.640Z,1022.19
2022-10-19T10:11:50.726Z,1022.18
2022-10-19T10:12:50.636Z,1022.17
2022-10-19T10:13:50.635Z,1022.18
2022-10-19T10:14:50.632Z,1022.15
2022-10-19T10:15:50.635Z,1022.10
2022-10-19T10:16:50.634Z,1022.10
2022-10-19T10:17:50.628Z,1022.09
2022-10-19T10:18:50.625Z,1022.04
2022-10-19T10:19:50.627Z,1022.01
2022-10-19T10:20:50.696Z,1022.00
2022-10-19T10:21:50.617Z,1022.01
2022-10-19T10:22:50.641Z,1021.96
2022-10-19T10:23:50.613Z,1021.95
2022-10-19T10:24:50.611Z,1022.00
2022-10-19T10:25:50.605Z,1022.01
2022-10-19T10:26:50.606Z,1021.99
2022-10-19T10:27:50.604Z,1021.99
2022-10-19T10:28:50.611Z,1021.98
2022-10-19T10:29:50.633Z,1021.95
2022-10-19T10:30:50.612Z,1021.95
2022-10-19T10:31:50.600Z,1021.95
2022-10-19T10:32:50.643Z,1021.98
2022-10-19T10:33:50.598Z,1021.96
2022-10-19T10:34:53.107Z,1021.91
2022-10-19T10:35:50.588Z,1021.96
2022-10-19T10:36:50.605Z,1021.94
2022-10-19T10:37:50.592Z,1021.97
2022-10-19T10:38:50.645Z,1021.95
2022-10-19T10:39:50.587Z,1021.92
2022-10-19T10:40:50.591Z,1021.94
2022-10-19T10:41:50.578Z,1021.91
2022-10-19T10:42:50.577Z,1021.91
2022-10-19T10:44:50.578Z,1021.82
2022-10-19T10:45:50.570Z,1021.76
2022-10-19T10:46:50.574Z,1021.73
2022-10-19T10:47:50.565Z,1021.66
2022-10-19T10:48:52.742Z,1021.66
2022-10-19T10:49:50.570Z,1021.67
2022-10-19T10:50:50.611Z,1021.63
2022-10-19T10:51:52.885Z,1021.66
2022-10-19T10:52:50.560Z,1021.66
2022-10-19T10:53:50.563Z,1021.69
2022-10-19T10:54:50.573Z,1021.69
2022-10-19T10:55:50.559Z,1021.64
2022-10-19T10:56:50.551Z,1021.63
2022-10-19T10:57:50.560Z,1021.63
2022-10-19T10:58:50.552Z,1021.62
2022-10-19T10:59:50.619Z,1021.69
2022-10-19T11:00:50.896Z,1021.67
2022-10-19T11:01:50.610Z,1021.68
2022-10-19T11:02:50.626Z,1021.61
2022-10-19T11:03:50.638Z,1021.62
2022-10-19T11:04:52.285Z,1021.59
2022-10-19T11:05:50.611Z,1021.57
2022-10-19T11:06:50.605Z,1021.58
2022-10-19T11:07:50.572Z,1021.55
2022-10-19T11:08:50.930Z,1021.53
2022-10-19T11:09:50.606Z,1021.49
2022-10-19T11:10:50.590Z,1021.49
2022-10-19T11:11:50.567Z,1021.49
2022-10-19T11:12:50.536Z,1021.47
2022-10-19T11:13:50.592Z,1021.45
2022-10-19T11:14:50.579Z,1021.42
2022-10-19T11:15:50.538Z,1021.40
2022-10-19T11:16:50.584Z,1021.41
2022-10-19T11:17:50.561Z,1021.37
2022-10-19T11:18:50.552Z,1021.33
2022-10-19T11:19:50.547Z,1021.33
2022-10-19T11:20:50.550Z,1021.26
2022-10-19T11:21:50.547Z,1021.25
2022-10-19T11:22:50.545Z,1021.27
2022-10-19T11:23:50.590Z,1021.28
2022-10-19T11:24:50.520Z,1021.28
2022-10-19T11:25:50.532Z,1021.20
2022-10-19T11:26:50.539Z,1021.22
2022-10-19T11:27:50.533Z,1021.24
2022-10-19T11:28:50.533Z,1021.17
2022-10-19T11:29:50.558Z,1021.15
2022-10-19T11:30:50.796Z,1021.14
2022-10-19T11:31:50.517Z,1021.11
2022-10-19T11:32:50.553Z,1021.12
2022-10-19T11:33:50.522Z,1021.12
2022-10-19T11:34:50.588Z,1021.10
2022-10-19T11:35:50.511Z,1021.09
2022-10-19T11:36:50.535Z,1021.10
2022-10-19T11:38:17.321Z,1021.10
2022-10-19T11:38:50.480Z,1021.06
2022-10-19T11:39:50.481Z,1021.02
2022-10-19T11:41:13.137Z,1021.03
2022-10-19T11:41:50.480Z,1021.01
2022-10-19T11:42:50.493Z,1021.02
2022-10-19T11:43:50.478Z,1021.02
2022-10-19T11:44:50.473Z,1021.01
2022-10-19T11:45:50.465Z,1020.96
2022-10-19T11:46:50.480Z,1021.00
2022-10-19T11:47:50.473Z,1020.99
2022-10-19T11:48:54.166Z,1020.96
2022-10-19T11:49:50.471Z,1020.96
2022-10-19T11:50:54.412Z,1020.95
2022-10-19T11:51:50.462Z,1020.93
2022-10-19T11:52:50.466Z,1020.95
2022-10-19T11:53:50.453Z,1020.96
2022-10-19T11:54:50.456Z,1020.95
2022-10-19T11:55:50.454Z,1020.93
2022-10-19T11:57:03.182Z,1020.88
2022-10-19T11:57:50.454Z,1020.85
2022-10-19T11:58:50.476Z,1020.82
2022-10-19T11:59:50.446Z,1020.76
2022-10-19T12:00:50.449Z,1020.79
2022-10-19T12:01:50.498Z,1020.76
2022-10-19T12:02:50.448Z,1020.71
2022-10-19T12:03:50.440Z,1020.70
2022-10-19T12:04:50.433Z,1020.70
2022-10-19T12:05:50.440Z,1020.66
2022-10-19T12:06:50.462Z,1020.60
2022-10-19T12:07:50.456Z,1020.59
2022-10-19T12:08:52.522Z,1020.58
2022-10-19T12:09:50.432Z,1020.58
2022-10-19T12:10:50.424Z,1020.63
2022-10-19T12:11:50.441Z,1020.60